Elk Mountain AWOS, WY

Date: 2024-06-11 10:15:00Z

Type: METAR

Weather: Thunderstorms

Winds: 150° at 3 kts

Visibility: 10+

Ceiling (AGL FT): Clouds SCATTERED at 200, BROKEN at 1700, BROKEN at 2900, BROKEN at 4400

RAW METAR: KEHY 111015Z AUTO 15003KT 10SM TS SCT002 09/06 A3018 RMK AO2

project-image